Time;durP1;ratioP1;P1;durP2;ratioP2;P2;SDS_P1;SDS_P2;PMS_P1;PMS_P2;Temp;Humidity;BMP_temperature;BMP_pressure;BME280_temperature;BME280_humidity;BME280_pressure;Samples;Min_cycle;Max_cycle;Signal;HPM_P1;HPM_P2
2021/05/27 00:01:04;;;;;;;21.50;13.03;;;;;;;16.92;100.00;100254.13;1770046;80;21049;-73
2021/05/27 00:03:31;;;;;;;21.42;12.60;;;;;;;16.91;100.00;100255.19;1770263;80;21081;-74
2021/05/27 00:05:57;;;;;;;24.20;13.53;;;;;;;16.89;100.00;100251.80;1733355;82;21602;-74
2021/05/27 00:08:24;;;;;;;21.07;12.25;;;;;;;16.85;100.00;100252.73;1704036;84;21057;-74
2021/05/27 00:10:51;;;;;;;24.35;13.32;;;;;;;16.80;100.00;100251.65;1770094;81;20990;-73
2021/05/27 00:13:17;;;;;;;34.80;14.07;;;;;;;16.77;100.00;100252.91;1704179;83;21069;-73
2021/05/27 00:15:44;;;;;;;23.32;13.35;;;;;;;16.75;100.00;100251.42;1770349;81;20990;-75
2021/05/27 00:18:10;;;;;;;22.77;13.00;;;;;;;16.72;100.00;100249.96;1764240;81;21690;-74
2021/05/27 00:20:37;;;;;;;22.30;13.18;;;;;;;16.72;100.00;100252.69;1761711;81;21022;-74
2021/05/27 00:23:03;;;;;;;26.27;13.55;;;;;;;16.74;100.00;100248.39;1762034;81;20978;-72
2021/05/27 00:25:30;;;;;;;22.42;12.13;;;;;;;16.72;100.00;100249.96;1696430;83;21594;-72
2021/05/27 00:27:57;;;;;;;20.25;11.00;;;;;;;16.72;100.00;100245.03;1762046;81;21025;-74
2021/05/27 00:30:26;;;;;;;24.15;12.10;;;;;;;16.70;100.00;100247.97;1769521;81;21021;-74
2021/05/27 00:32:53;;;;;;;25.92;14.53;;;;;;;16.69;100.00;100246.27;1696646;84;21082;-72
2021/05/27 00:35:19;;;;;;;27.10;15.55;;;;;;;16.68;100.00;100245.97;1761558;81;21563;-72
2021/05/27 00:37:46;;;;;;;40.67;24.15;;;;;;;16.66;100.00;100248.03;1696763;84;21575;-72
2021/05/27 00:40:15;;;;;;;45.35;23.62;;;;;;;16.63;100.00;100249.84;1725264;83;20987;-72
2021/05/27 00:42:41;;;;;;;46.58;24.55;;;;;;;16.60;100.00;100252.97;1762052;81;21558;-72
2021/05/27 00:45:12;;;;;;;45.45;24.77;;;;;;;16.54;100.00;100253.77;1725246;83;21094;-72
2021/05/27 00:47:39;;;;;;;32.05;18.25;;;;;;;16.47;100.00;100247.78;1761624;81;21050;-72
2021/05/27 00:50:20;;;;;;;26.57;13.93;;;;;;;16.41;100.00;100252.68;1761661;80;20998;-71
2021/05/27 00:52:43;;;;;;;23.62;12.95;;;;;;;16.37;100.00;100254.14;1759009;81;21018;-74
2021/05/27 00:55:12;;;;;;;24.15;13.93;;;;;;;16.35;100.00;100255.41;1725632;82;21050;-74
2021/05/27 00:57:39;;;;;;;24.60;14.10;;;;;;;16.36;100.00;100252.98;1696510;84;21070;-74
2021/05/27 01:00:14;;;;;;;23.83;14.07;;;;;;;16.36;100.00;100255.20;1762205;81;21021;-74
2021/05/27 01:02:40;;;;;;;37.50;20.43;;;;;;;16.35;100.00;100263.06;1696461;84;21080;-74
2021/05/27 01:05:11;;;;;;;40.85;21.55;;;;;;;16.36;100.00;100264.76;1725383;83;21006;-72
2021/05/27 01:07:38;;;;;;;35.00;18.75;;;;;;;16.36;100.00;100262.03;1696079;84;21555;-71
2021/05/27 01:10:09;;;;;;;31.55;17.10;;;;;;;16.37;100.00;100264.23;1696285;84;21086;-70
2021/05/27 01:12:36;;;;;;;37.17;20.68;;;;;;;16.35;100.00;100266.33;1740878;81;21042;-71
2021/05/27 01:17:57;;;;;;;39.35;20.43;;;;;;;16.32;100.00;100268.92;1696207;84;21138;-74
2021/05/27 01:20:25;;;;;;;32.42;18.73;;;;;;;16.32;100.00;100266.19;1624226;86;21072;-73
2021/05/27 01:22:55;;;;;;;29.25;17.65;;;;;;;16.33;100.00;100262.43;1665358;82;21057;-73
2021/05/27 01:25:22;;;;;;;31.12;18.25;;;;;;;16.35;100.00;100266.33;1666403;85;21181;-74
2021/05/27 01:27:49;;;;;;;31.93;17.57;;;;;;;16.33;100.00;100263.27;1665107;85;21057;-74
2021/05/27 01:30:19;;;;;;;28.35;16.35;;;;;;;16.31;100.00;100263.16;1654196;86;21025;-74
2021/05/27 01:32:45;;;;;;;30.68;14.93;;;;;;;16.28;100.00;100262.20;1654182;87;21088;-73
2021/05/27 01:35:17;;;;;;;31.90;16.17;;;;;;;16.26;100.00;100267.84;1654149;87;21049;-74
2021/05/27 01:37:46;;;;;;;29.98;17.67;;;;;;;16.24;100.00;100263.66;1646848;87;21033;-74
2021/05/27 01:40:17;;;;;;;32.85;19.12;;;;;;;16.21;100.00;100269.51;1654335;87;21088;-73
2021/05/27 01:42:44;;;;;;;34.65;20.97;;;;;;;16.17;100.00;100264.14;1654204;87;21066;-73
2021/05/27 01:45:11;;;;;;;38.92;22.85;;;;;;;16.13;100.00;100266.44;1654199;87;21562;-73
2021/05/27 01:47:38;;;;;;;36.03;20.72;;;;;;;16.10;100.00;100264.11;1654153;87;21092;-74
2021/05/27 01:50:09;;;;;;;42.27;19.77;;;;;;;16.08;100.00;100268.92;1654283;87;21154;-73
2021/05/27 01:52:36;;;;;;;29.20;15.85;;;;;;;16.07;100.00;100267.23;1646865;87;21089;-70
2021/05/27 01:55:06;;;;;;;33.28;20.40;;;;;;;16.06;100.00;100275.94;1654173;87;21037;-72
2021/05/27 01:57:33;;;;;;;42.80;31.35;;;;;;;16.08;100.00;100269.76;1654000;87;21045;-73
2021/05/27 02:00:00;;;;;;;41.37;30.60;;;;;;;16.10;100.00;100279.11;1646957;87;21093;-72
2021/05/27 02:02:27;;;;;;;42.85;31.45;;;;;;;16.10;100.00;100281.84;1654290;87;21057;-72
2021/05/27 02:04:53;;;;;;;42.00;31.60;;;;;;;16.06;100.00;100280.53;1654142;87;21542;-72
2021/05/27 02:07:20;;;;;;;41.02;29.15;;;;;;;16.00;100.00;100280.82;1647046;87;21049;-71
2021/05/27 02:09:49;;;;;;;40.67;30.30;;;;;;;15.96;100.00;100285.00;1654094;87;21121;-71
2021/05/27 02:12:17;;;;;;;49.23;33.65;;;;;;;15.91;100.00;100289.68;1654027;87;21077;-71
2021/05/27 02:14:45;;;;;;;36.23;24.52;;;;;;;15.91;100.00;100289.68;1654101;87;21037;-71
2021/05/27 02:17:13;;;;;;;33.40;23.98;;;;;;;15.90;100.00;100292.60;1707164;81;21678;-70
2021/05/27 02:19:41;;;;;;;30.30;21.77;;;;;;;15.84;100.00;100291.52;1761854;81;21161;-70
2021/05/27 02:22:08;;;;;;;29.55;21.37;;;;;;;15.81;100.00;100295.17;1761836;81;21022;-71
2021/05/27 02:24:52;;;;;;;31.93;20.10;;;;;;;15.75;100.00;100299.02;1758576;81;21078;-70
2021/05/27 02:27:19;;;;;;;27.55;20.08;;;;;;;15.72;100.00;100293.95;1761662;81;21042;-70
2021/05/27 02:29:47;;;;;;;29.57;20.10;;;;;;;15.68;100.00;100296.73;1693467;84;21030;-71
2021/05/27 02:32:15;;;;;;;27.77;19.45;;;;;;;15.63;100.00;100297.84;1740496;81;21073;-72
2021/05/27 02:34:42;;;;;;;29.40;19.73;;;;;;;15.61;100.00;100297.73;1761804;81;21022;-71
2021/05/27 02:37:09;;;;;;;38.83;21.80;;;;;;;15.59;100.00;100295.73;1761694;81;21029;-71
2021/05/27 02:39:38;;;;;;;33.67;20.92;;;;;;;15.57;100.00;100291.83;1761758;81;21072;-71
2021/05/27 02:42:05;;;;;;;32.40;22.25;;;;;;;15.53;100.00;100294.11;1696253;84;21002;-71
2021/05/27 02:44:32;;;;;;;37.00;21.48;;;;;;;15.56;100.00;100299.17;1761895;80;21053;-71
2021/05/27 02:47:01;;;;;;;31.17;21.42;;;;;;;15.59;100.00;100301.17;1761546;81;21022;-71
2021/05/27 02:49:27;;;;;;;31.55;21.52;;;;;;;15.60;100.00;100303.70;1696225;84;21548;-72
2021/05/27 02:51:57;;;;;;;32.38;20.15;;;;;;;15.62;100.00;100295.34;1761413;81;21594;-71
2021/05/27 02:54:25;;;;;;;35.25;19.62;;;;;;;15.62;100.00;100295.34;1740463;81;21033;-71
2021/05/27 02:56:59;;;;;;;36.03;21.12;;;;;;;15.65;100.00;100301.23;1761619;81;21057;-70
2021/05/27 02:59:23;;;;;;;29.63;20.40;;;;;;;15.67;100.00;100307.33;1758647;81;21037;-72
2021/05/27 03:01:51;;;;;;;31.57;20.57;;;;;;;15.73;100.00;100304.32;1761784;81;21593;-72
2021/05/27 03:04:17;;;;;;;34.98;21.55;;;;;;;15.79;100.00;100303.55;1761838;81;20998;-72
2021/05/27 03:06:45;;;;;;;33.65;20.00;;;;;;;15.85;100.00;100300.56;1761741;81;21014;-75
2021/05/27 03:09:12;;;;;;;35.38;19.48;;;;;;;15.90;100.00;100304.87;1761850;81;21045;-76
2021/05/27 03:11:38;;;;;;;35.50;18.30;;;;;;;15.97;100.00;100295.38;1761810;81;21033;-71
2021/05/27 03:14:06;;;;;;;36.53;21.00;;;;;;;16.02;100.00;100296.45;1761713;81;21025;-72
2021/05/27 03:16:39;;;;;;;32.20;19.23;;;;;;;16.10;100.00;100294.94;1622169;86;21077;-71
2021/05/27 03:19:07;;;;;;;32.93;19.73;;;;;;;16.21;100.00;100292.70;1621843;87;21654;-72
2021/05/27 03:21:33;;;;;;;40.50;19.17;;;;;;;16.31;100.00;100287.19;1621879;88;21099;-72
2021/05/27 03:24:01;;;;;;;37.13;19.42;;;;;;;16.41;100.00;100282.70;1594912;90;21623;-71
2021/05/27 03:26:28;;;;;;;29.95;17.23;;;;;;;16.51;100.00;100286.43;1621886;88;21097;-73
2021/05/27 03:28:55;;;;;;;39.67;16.23;;;;;;;16.61;100.00;100283.30;1602654;89;21125;-71
2021/05/27 03:31:22;;;;;;;34.73;15.68;;;;;;;16.69;100.00;100273.57;1608128;89;21183;-72
2021/05/27 03:33:49;;;;;;;32.90;15.48;;;;;;;16.79;100.00;100278.66;1608129;89;21654;-71
2021/05/27 03:36:16;;;;;;;27.75;14.47;;;;;;;16.88;100.00;100271.45;1608210;89;21101;-71
2021/05/27 03:38:45;;;;;;;30.43;15.10;;;;;;;17.00;100.00;100272.22;1606077;89;21097;-71
2021/05/27 03:41:12;;;;;;;30.55;14.85;;;;;;;17.11;100.00;100264.77;1606130;89;21137;-71
2021/05/27 03:43:40;;;;;;;27.98;14.50;;;;;;;17.26;100.00;100261.82;1606303;89;21073;-70
2021/05/27 03:46:08;;;;;;;29.65;14.58;;;;;;;17.42;100.00;100253.73;1606239;89;21093;-70
2021/05/27 03:48:35;;;;;;;46.15;14.50;;;;;;;17.60;100.00;100255.81;1606104;89;21093;-70
2021/05/27 03:51:03;;;;;;;50.50;15.15;;;;;;;17.75;100.00;100252.33;1606014;89;21073;-71
2021/05/27 03:53:31;;;;;;;44.77;15.78;;;;;;;17.91;100.00;100252.44;1636776;84;21061;-70
2021/05/27 03:55:59;;;;;;;45.35;17.40;;;;;;;18.04;100.00;100254.29;1667542;86;21633;-71
2021/05/27 04:01:12;;;;;;;39.13;19.45;;;;;;;18.32;100.00;100251.78;1667809;86;22051;-72
2021/05/27 04:09:17;;;;;;;22.45;13.53;;;;;;;18.86;100.00;100243.64;1667896;86;21052;-75
2021/05/27 04:11:45;;;;;;;23.25;13.05;;;;;;;19.02;100.00;100245.00;1667562;86;21092;-75
2021/05/27 04:14:13;;;;;;;25.82;14.07;;;;;;;19.17;100.00;100243.30;1667589;86;21092;-76
2021/05/27 04:16:40;;;;;;;25.82;14.50;;;;;;;19.31;100.00;100237.19;1667770;86;21021;-76
2021/05/27 04:19:08;;;;;;;30.05;16.60;;;;;;;19.50;100.00;100238.91;1664301;86;21654;-76
2021/05/27 04:21:35;;;;;;;27.73;13.93;;;;;;;19.74;100.00;100233.64;1662697;86;21116;-76
2021/05/27 04:24:02;;;;;;;33.23;18.00;;;;;;;20.01;100.00;100226.48;1665199;86;21128;-76
2021/05/27 04:26:29;;;;;;;44.93;25.12;;;;;;;20.38;100.00;100219.59;1665378;85;21064;-76
2021/05/27 04:28:56;;;;;;;51.85;31.97;;;;;;;20.71;100.00;100215.05;1659954;85;21543;-75
2021/05/27 04:31:24;;;;;;;55.35;31.00;;;;;;;20.96;100.00;100214.05;1664073;85;21087;-76
2021/05/27 04:33:54;;;;;;;51.92;28.35;;;;;;;21.23;100.00;100211.73;1664124;86;21565;-77
2021/05/27 04:36:21;;;;;;;56.48;30.95;;;;;;;21.49;100.00;100207.69;1666747;86;21039;-76
2021/05/27 04:38:48;;;;;;;38.50;21.85;;;;;;;21.70;100.00;100210.37;1666869;85;21043;-75
2021/05/27 04:41:17;;;;;;;35.30;19.45;;;;;;;21.90;100.00;100211.39;1666563;85;21660;-76
2021/05/27 04:43:46;;;;;;;36.40;18.95;;;;;;;22.09;100.00;100205.72;1666932;85;21036;-75
2021/05/27 04:46:14;;;;;;;29.72;15.83;;;;;;;22.25;100.00;100204.94;1666617;85;21067;-76
2021/05/27 04:48:43;;;;;;;31.45;16.85;;;;;;;22.40;100.00;100205.84;1666848;85;21095;-75
2021/05/27 04:51:09;;;;;;;26.85;15.63;;;;;;;22.57;100.00;100207.25;1666717;85;21549;-76
2021/05/27 04:53:36;;;;;;;34.95;17.62;;;;;;;22.71;100.00;100204.48;1704928;83;21017;-75
2021/05/27 04:56:03;;;;;;;102.55;57.03;;;;;;;22.81;100.00;100194.75;1713272;83;21044;-73
2021/05/27 04:58:32;;;;;;;80.75;45.43;;;;;;;22.90;100.00;100198.22;1713153;83;21041;-75
2021/05/27 05:00:59;;;;;;;57.73;32.45;;;;;;;23.01;100.00;100202.53;1706323;83;21049;-75
2021/05/27 05:03:26;;;;;;;44.05;22.32;;;;;;;23.11;100.00;100204.13;1706230;83;21079;-72
2021/05/27 05:05:53;;;;;;;27.60;16.05;;;;;;;23.23;100.00;100205.40;1705993;84;21013;-71
2021/05/27 05:08:20;;;;;;;37.40;18.82;;;;;;;23.36;100.00;100209.21;1706127;84;21049;-72
2021/05/27 05:10:48;;;;;;;50.98;29.05;;;;;;;23.55;100.00;100199.27;1705984;84;21580;-70
2021/05/27 05:13:14;;;;;;;86.42;52.75;;;;;;;23.73;100.00;100195.38;1706125;84;21029;-69
2021/05/27 05:15:43;;;;;;;41.37;22.62;;;;;;;23.87;100.00;100197.58;1705938;84;21578;-67
2021/05/27 05:18:13;;;;;;;106.47;64.40;;;;;;;23.99;100.00;100196.61;1714036;80;21082;-68
2021/05/27 05:20:43;;;;;;;48.38;28.35;;;;;;;24.05;100.00;100192.28;1756030;82;21532;-75
2021/05/27 05:23:12;;;;;;;37.17;19.23;;;;;;;24.11;100.00;100194.55;1749082;80;21088;-74
2021/05/27 05:25:40;;;;;;;32.98;18.10;;;;;;;24.16;100.00;100193.23;1749599;82;21044;-79
2021/05/27 05:28:07;;;;;;;30.62;14.75;;;;;;;24.24;100.00;100186.41;1743802;82;21550;-76
2021/05/27 05:30:35;;;;;;;30.12;16.05;;;;;;;24.30;100.00;100190.92;1749161;82;21044;-76
2021/05/27 05:33:03;;;;;;;76.90;61.77;;;;;;;24.46;100.00;100189.16;1749500;82;21048;-74
2021/05/27 05:35:30;;;;;;;58.95;36.38;;;;;;;24.61;100.00;100194.89;1749836;82;21123;-79
2021/05/27 05:37:58;;;;;;;129.30;59.13;;;;;;;24.80;100.00;100193.13;1750386;82;21048;-77
2021/05/27 05:40:27;;;;;;;111.60;46.42;;;;;;;25.05;100.00;100188.38;1749709;82;21064;-80
2021/05/27 05:42:56;;;;;;;60.60;25.02;;;;;;;25.23;100.00;100193.22;1750360;82;21048;-76
2021/05/27 05:45:23;;;;;;;47.90;18.95;;;;;;;25.34;100.00;100193.08;1749574;82;21569;-78
2021/05/27 05:47:51;;;;;;;25.65;13.60;;;;;;;25.46;100.00;100190.66;1749390;82;21038;-80
2021/05/27 05:53:08;;;;;;;94.47;53.65;;;;;;;25.56;100.00;100190.73;1750112;82;21072;-81
2021/05/27 05:55:35;;;;;;;144.90;77.15;;;;;;;25.67;100.00;100181.38;1749867;82;21056;-80
2021/05/27 05:58:03;;;;;;;34.55;15.55;;;;;;;25.74;100.00;100190.83;1749978;82;21111;-78
2021/05/27 06:00:31;;;;;;;49.45;15.60;;;;;;;25.75;100.00;100184.20;1749629;82;21144;-79
2021/05/27 06:02:58;;;;;;;64.37;38.28;;;;;;;25.71;100.00;100188.59;1749955;82;21056;-79
2021/05/27 06:05:32;;;;;;;52.50;24.57;;;;;;;25.61;100.00;100188.55;1745819;82;21107;-78
2021/05/27 06:08:00;;;;;;;43.73;19.37;;;;;;;25.58;100.00;100182.98;1749359;82;21582;-79
2021/05/27 06:10:28;;;;;;;51.25;20.17;;;;;;;25.51;100.00;100179.62;1734170;82;21032;-78
2021/05/27 06:12:56;;;;;;;61.37;32.78;;;;;;;25.51;100.00;100178.23;1727613;82;21127;-79
2021/05/27 06:15:25;;;;;;;60.43;43.83;;;;;;;25.66;100.00;100174.19;1733575;82;21036;-77
2021/05/27 06:17:53;;;;;;;25.45;17.32;;;;;;;25.83;100.00;100181.47;1698502;84;21160;-75
2021/05/27 06:20:22;;;;;;;19.55;8.63;;;;;;;25.94;100.00;100180.43;1675247;83;21131;-75
2021/05/27 06:22:51;;;;;;;23.77;10.53;;;;;;;25.98;100.00;100176.59;1687008;83;21024;-78
2021/05/27 06:25:19;;;;;;;15.60;6.90;;;;;;;26.08;100.00;100172.46;1669581;86;21060;-78
2021/05/27 06:27:48;;;;;;;22.93;11.80;;;;;;;26.27;100.00;100165.33;1686202;84;21092;-80
2021/05/27 06:30:15;;;;;;;15.83;6.30;;;;;;;26.48;100.00;100167.59;1690948;84;21078;-79
2021/05/27 06:32:42;;;;;;;18.40;6.22;;;;;;;26.75;100.00;100165.17;1623248;88;21153;-76
2021/05/27 06:35:11;;;;;;;11.25;4.97;;;;;;;27.02;100.00;100160.77;1694694;84;21045;-77
2021/05/27 06:37:39;;;;;;;13.98;4.97;;;;;;;27.35;100.00;100158.53;1692155;84;21047;-76
2021/05/27 06:40:11;;;;;;;17.20;4.83;;;;;;;27.61;100.00;100159.88;1682923;84;21115;-80
2021/05/27 06:42:38;;;;;;;12.10;4.58;;;;;;;27.86;100.00;100158.14;1633279;85;21052;-77
2021/05/27 06:45:06;;;;;;;23.67;11.68;;;;;;;28.01;100.00;100162.26;1597893;89;21099;-74
2021/05/27 06:47:33;;;;;;;12.23;5.12;;;;;;;28.11;100.00;100151.10;1638954;87;21547;-80
2021/05/27 06:50:00;;;;;;;15.03;4.75;;;;;;;28.19;100.00;100156.64;1649436;85;21057;-77
2021/05/27 06:52:26;;;;;;;14.38;5.30;;;;;;;28.29;100.00;100144.05;1603984;89;21032;-73
2021/05/27 06:54:53;;;;;;;21.70;6.35;;;;;;;28.21;100.00;100151.06;1664035;85;21090;-81
2021/05/27 06:57:20;;;;;;;8.38;4.00;;;;;;;28.26;100.00;100147.43;1582493;89;21107;-77
2021/05/27 06:59:46;;;;;;;11.25;4.47;;;;;;;28.39;100.00;100144.00;1644397;85;21582;-71
2021/05/27 07:02:13;;;;;;;10.70;3.50;;;;;;;28.52;100.00;100149.47;1635583;87;21044;-72
2021/05/27 07:04:39;;;;;;;11.53;4.12;;;;;;;28.61;100.00;100141.95;1597216;89;21645;-73
2021/05/27 07:07:07;;;;;;;26.48;6.37;;;;;;;28.70;100.00;100140.20;1639437;87;21056;-71
2021/05/27 07:09:33;;;;;;;19.48;4.75;;;;;;;28.78;100.00;100140.98;1598690;89;21072;-74
2021/05/27 07:12:01;;;;;;;34.78;8.38;;;;;;;28.76;100.00;100139.88;1630409;87;21109;-72
2021/05/27 07:14:29;;;;;;;21.10;5.90;;;;;;;28.94;100.00;100138.34;1604044;87;21165;-73
2021/05/27 07:16:58;;;;;;;20.88;4.75;;;;;;;29.19;100.00;100135.66;1698538;83;21028;-69
2021/05/27 07:19:24;;;;;;;41.13;35.13;;;;;;;29.35;100.00;100135.20;1696269;83;21103;-70
2021/05/27 07:21:51;;;;;;;21.85;8.60;;;;;;;29.43;100.00;100131.50;1722353;82;21039;-72
2021/05/27 07:24:18;;;;;;;11.73;4.50;;;;;;;29.57;100.00;100119.95;1712030;83;21055;-70
2021/05/27 07:26:46;;;;;;;10.98;4.25;;;;;;;29.81;100.00;100127.48;1707072;83;21112;-73
2021/05/27 07:29:12;;;;;;;18.20;5.15;;;;;;;29.98;100.00;100128.37;1710266;82;21036;-73
2021/05/27 07:31:40;;;;;;;13.68;5.42;;;;;;;30.13;100.00;100128.17;1732367;82;21051;-70
2021/05/27 07:34:06;;;;;;;11.90;4.47;;;;;;;30.24;100.00;100121.89;1710218;82;21127;-73
2021/05/27 07:36:33;;;;;;;21.93;6.47;;;;;;;30.28;100.00;100120.18;1706753;83;20976;-71
2021/05/27 07:39:00;;;;;;;25.75;5.50;;;;;;;30.31;100.00;100120.95;1720683;81;21114;-70
2021/05/27 07:41:27;;;;;;;18.87;4.92;;;;;;;30.44;100.00;100115.23;1734170;81;20995;-75
2021/05/27 07:43:54;;;;;;;9.95;3.70;;;;;;;30.54;100.00;100119.23;1745236;81;21037;-73
2021/05/27 07:46:21;;;;;;;38.45;8.75;;;;;;;30.61;99.19;100112.70;1674018;84;21061;-73
2021/05/27 07:48:48;;;;;;;18.27;4.78;;;;;;;30.54;100.00;100112.84;1737231;81;21033;-73
2021/05/27 07:51:15;;;;;;;24.55;11.15;;;;;;;30.62;100.00;100114.38;1746918;81;21017;-73
2021/05/27 07:53:42;;;;;;;20.02;6.47;;;;;;;30.87;99.78;100117.06;1771339;80;21056;-74
2021/05/27 07:56:11;;;;;;;19.67;5.90;;;;;;;31.03;100.00;100114.28;1739593;81;21514;-73
2021/05/27 07:58:39;;;;;;;23.55;10.50;;;;;;;31.03;93.45;100110.92;1739445;81;21021;-68
2021/05/27 08:01:06;;;;;;;19.23;9.28;;;;;;;30.89;90.92;100114.78;1745957;81;21044;-74
2021/05/27 08:03:33;;;;;;;21.07;5.45;;;;;;;30.87;95.30;100113.69;1750179;81;21040;-75
2021/05/27 08:06:01;;;;;;;8.30;3.52;;;;;;;30.98;95.66;100111.58;1733278;82;21057;-73
2021/05/27 08:08:28;;;;;;;7.70;3.50;;;;;;;31.15;91.28;100113.23;1742429;81;21006;-73
2021/05/27 08:10:55;;;;;;;16.80;4.42;;;;;;;31.27;89.52;100114.69;1743123;81;21110;-75
2021/05/27 08:13:22;;;;;;;21.40;7.08;;;;;;;31.40;90.27;100110.52;1750034;81;21049;-72
2021/05/27 08:15:51;;;;;;;23.47;5.62;;;;;;;31.55;88.41;100109.44;1729816;81;21036;-75
2021/05/27 08:18:18;;;;;;;14.75;4.60;;;;;;;31.69;84.53;100119.77;1749524;81;21067;-75
2021/05/27 08:20:44;;;;;;;20.20;4.92;;;;;;;31.66;85.20;100104.47;1744721;81;21627;-74
2021/05/27 08:23:11;;;;;;;15.72;5.30;;;;;;;31.76;88.01;100108.42;1743498;81;21063;-72
2021/05/27 08:25:38;;;;;;;24.15;13.60;;;;;;;31.85;86.27;100108.52;1743621;82;21024;-74
2021/05/27 08:28:05;;;;;;;20.85;9.18;;;;;;;31.93;86.12;100114.78;1733059;82;21000;-76
2021/05/27 08:30:32;;;;;;;16.10;4.80;;;;;;;32.08;80.74;100108.05;1731904;82;21074;-74
2021/05/27 08:32:58;;;;;;;6.00;3.10;;;;;;;32.26;80.42;100111.02;1736383;81;21143;-73
2021/05/27 08:35:26;;;;;;;13.70;4.22;;;;;;;32.36;77.32;100099.02;1739333;81;21089;-73
2021/05/27 08:37:53;;;;;;;38.23;7.42;;;;;;;32.39;78.32;100097.58;1735063;81;21094;-74
2021/05/27 08:40:21;;;;;;;10.03;3.77;;;;;;;32.43;78.58;100103.36;1736962;82;21027;-73
2021/05/27 08:42:47;;;;;;;11.38;3.87;;;;;;;32.39;75.88;100100.38;1724050;82;21074;-74
2021/05/27 08:45:16;;;;;;;13.80;4.17;;;;;;;32.36;75.43;100107.41;1730660;82;21054;-74
2021/05/27 08:47:43;;;;;;;7.33;4.00;;;;;;;32.44;76.91;100101.66;1727273;82;21000;-75
2021/05/27 08:50:11;;;;;;;14.58;5.85;;;;;;;32.56;76.80;100095.47;1700852;82;21063;-73
2021/05/27 08:52:38;;;;;;;16.30;7.35;;;;;;;32.55;72.71;100102.23;1741742;82;21057;-75
2021/05/27 08:55:05;;;;;;;20.15;4.28;;;;;;;31.95;75.82;100097.13;1739864;82;21015;-74
2021/05/27 08:57:32;;;;;;;14.07;3.90;;;;;;;31.40;80.49;100094.33;1727340;82;21062;-74
2021/05/27 09:00:00;;;;;;;6.90;3.37;;;;;;;31.27;81.37;100104.36;1728411;82;21031;-71
2021/05/27 09:02:27;;;;;;;14.15;5.50;;;;;;;31.36;77.58;100097.47;1717441;82;20987;-72
2021/05/27 09:04:54;;;;;;;11.20;3.47;;;;;;;31.49;79.62;100100.06;1707860;82;21043;-73
2021/05/27 09:07:24;;;;;;;11.30;3.80;;;;;;;31.74;82.15;100098.13;1727958;82;21038;-74
2021/05/27 09:09:55;;;;;;;11.05;3.98;;;;;;;32.02;82.24;100091.69;1712349;83;21030;-77
2021/05/27 09:12:35;;;;;;;7.55;3.27;;;;;;;32.09;74.25;100094.92;1713901;83;21019;-74
2021/05/27 09:15:19;;;;;;;15.08;7.40;;;;;;;32.08;77.66;100089.88;1719388;82;21202;-71
2021/05/27 09:17:52;;;;;;;11.18;5.00;;;;;;;32.17;80.31;100095.55;1713753;83;21082;-71
2021/05/27 09:20:24;;;;;;;11.75;3.80;;;;;;;32.21;76.23;100097.99;1637291;86;21124;-73
2021/05/27 09:23:15;;;;;;;10.60;3.65;;;;;;;32.14;73.54;100097.60;1655656;86;21400;-75
2021/05/27 09:25:58;;;;;;;15.43;8.05;;;;;;;32.03;77.44;100088.55;1655127;87;21148;-74
2021/05/27 09:28:29;;;;;;;20.37;13.72;;;;;;;32.18;78.61;100084.63;1633058;87;21017;-75
2021/05/27 09:31:01;;;;;;;17.32;4.90;;;;;;;32.43;75.49;100087.39;1629923;87;21074;-70
2021/05/27 09:33:39;;;;;;;12.88;4.47;;;;;;;32.35;75.18;100082.55;1661375;86;21054;-72
2021/05/27 09:36:11;;;;;;;16.97;4.35;;;;;;;32.01;75.98;100083.85;1662131;86;21082;-73
2021/05/27 09:38:43;;;;;;;22.10;5.28;;;;;;;31.78;78.62;100070.38;1662230;86;21650;-71
2021/05/27 09:41:22;;;;;;;20.37;4.90;;;;;;;31.66;80.79;100078.47;1662034;86;21664;-72
2021/05/27 09:43:56;;;;;;;12.33;4.92;;;;;;;31.45;82.72;100079.42;1586652;89;21149;-75
2021/05/27 09:46:23;;;;;;;17.17;5.35;;;;;;;31.38;83.46;100080.67;1607733;89;21130;-71
2021/05/27 09:49:08;;;;;;;16.80;4.80;;;;;;;31.58;82.30;100078.05;1607781;89;21685;-73
2021/05/27 09:51:35;;;;;;;14.10;4.70;;;;;;;31.71;79.31;100080.58;1607525;89;21111;-73
2021/05/27 09:54:03;;;;;;;9.13;3.70;;;;;;;31.69;78.62;100084.26;1607744;89;21103;-72
2021/05/27 09:56:40;;;;;;;23.07;5.47;;;;;;;31.69;74.95;100082.86;1608002;89;21128;-70
2021/05/27 09:59:09;;;;;;;12.53;4.25;;;;;;;31.48;77.02;100082.42;1604417;89;21161;-72
2021/05/27 10:01:36;;;;;;;14.28;4.70;;;;;;;31.45;79.74;100078.02;1604552;89;21555;-75
2021/05/27 10:04:18;;;;;;;16.17;4.20;;;;;;;31.70;85.88;100076.14;1604759;89;21109;-73
2021/05/27 10:06:45;;;;;;;15.48;3.98;;;;;;;32.05;85.85;100077.94;1605387;89;21097;-73
2021/05/27 10:09:12;;;;;;;13.58;4.42;;;;;;;32.24;80.07;100070.77;1604959;89;21207;-72
2021/05/27 10:11:40;;;;;;;12.65;5.67;;;;;;;32.06;77.94;100067.57;1604734;89;21120;-72
2021/05/27 10:14:11;;;;;;;25.52;8.88;;;;;;;31.79;77.92;100069.25;1604822;89;21074;-71
2021/05/27 10:16:39;;;;;;;31.95;13.88;;;;;;;31.48;80.94;100064.84;1604520;89;21132;-75
2021/05/27 10:19:08;;;;;;;28.50;10.08;;;;;;;31.15;82.75;100069.95;1598936;89;21075;-71
2021/05/27 10:21:38;;;;;;;19.05;6.70;;;;;;;30.92;82.55;100062.54;1570506;90;21029;-70
2021/05/27 10:24:07;;;;;;;72.22;47.60;;;;;;;30.94;82.34;100060.30;1600190;88;21124;-72
2021/05/27 10:26:34;;;;;;;31.75;17.32;;;;;;;31.15;78.66;100057.95;1627623;86;21092;-73
2021/05/27 10:29:01;;;;;;;51.65;24.98;;;;;;;31.45;80.15;100050.08;1634012;86;21115;-72
2021/05/27 10:31:28;;;;;;;22.13;6.70;;;;;;;31.79;84.44;100050.50;1604029;86;21068;-71
2021/05/27 10:33:55;;;;;;;18.40;5.58;;;;;;;32.16;78.85;100054.17;1642781;86;21024;-71
2021/05/27 10:36:23;;;;;;;26.15;7.47;;;;;;;32.42;72.54;100052.73;1641627;86;21071;-73
2021/05/27 10:38:51;;;;;;;6.87;4.20;;;;;;;32.47;71.91;100056.22;1636619;86;21024;-70
2021/05/27 10:41:33;;;;;;;11.83;4.20;;;;;;;32.66;68.92;100048.25;1696885;83;21036;-70
2021/05/27 10:44:06;;;;;;;30.10;7.03;;;;;;;32.84;75.13;100048.59;1715638;83;21546;-72
2021/05/27 10:46:49;;;;;;;13.85;5.10;;;;;;;33.10;73.41;100038.13;1715700;83;21526;-72
2021/05/27 10:49:45;;;;;;;23.92;8.20;;;;;;;33.37;69.19;100033.48;1716698;83;21066;-73
2021/05/27 10:52:34;;;;;;;9.18;3.95;;;;;;;33.60;68.76;100039.81;1716228;83;21578;-72
2021/05/27 10:55:04;;;;;;;6.40;3.80;;;;;;;33.80;66.99;100042.59;1619099;84;21059;-72
2021/05/27 10:57:45;;;;;;;11.73;4.00;;;;;;;33.65;65.10;100033.47;1681003;85;21068;-71
2021/05/27 11:00:19;;;;;;;10.45;3.92;;;;;;;33.67;65.93;100036.80;1680889;85;21112;-71
2021/05/27 11:02:46;;;;;;;8.75;4.00;;;;;;;33.69;63.94;100032.86;1681347;85;21130;-72
2021/05/27 11:05:15;;;;;;;10.32;3.98;;;;;;;33.77;66.32;100033.45;1681665;85;21052;-71
2021/05/27 11:07:44;;;;;;;20.32;8.08;;;;;;;33.48;63.37;100029.22;1680987;85;21028;-72
2021/05/27 11:10:30;;;;;;;33.78;16.85;;;;;;;33.33;63.56;100031.91;1636934;85;21100;-73
2021/05/27 11:13:02;;;;;;;15.50;6.20;;;;;;;33.12;63.56;100033.02;1681135;85;21513;-71
2021/05/27 11:15:29;;;;;;;20.80;6.12;;;;;;;32.58;67.31;100030.79;1681206;85;21040;-72
2021/05/27 11:18:06;;;;;;;23.60;8.20;;;;;;;32.10;70.30;100026.09;1681779;85;21008;-71
2021/05/27 11:20:34;;;;;;;19.20;7.25;;;;;;;31.60;66.68;100030.24;1685820;84;21652;-72
2021/05/27 11:23:21;;;;;;;11.57;5.00;;;;;;;30.99;70.17;100027.53;1691141;85;21117;-71
2021/05/27 11:25:47;;;;;;;19.02;6.40;;;;;;;30.44;70.04;100025.40;1690146;82;21171;-71
2021/05/27 11:28:21;;;;;;;14.93;5.10;;;;;;;29.99;75.75;100025.52;1690015;84;21621;-70